Terminal Aerodrome Forecast
Issued by NWS

Home | Current Version | Previous Version | Text Only | Print | Product List | Glossary Off
Versions: 1 2 3 4 5 6 7 8 9 10 11 12 13 14 15 16 17 18

783
FTUS43 KTOP 030539
TAFMHK
TAF
KMHK 030539Z 0306/0406 33012G24KT P6SM OVC015
     FM031700 32014KT P6SM SCT020
     FM040000 26003KT P6SM SKC=

USA.gov is the U.S. government's official web portal to all federal, state and local government web resources and services.